createdAt,value
2023-04-09T00:01:37.526Z,31.33
2023-04-09T00:04:04.111Z,28.87
2023-04-09T00:06:31.491Z,34.13
2023-04-09T00:08:57.978Z,30.20
2023-04-09T00:11:24.455Z,24.33
2023-04-09T00:13:50.933Z,32.20
2023-04-09T00:16:18.052Z,24.60
2023-04-09T00:18:44.534Z,33.30
2023-04-09T00:21:11.124Z,30.00
2023-04-09T00:23:37.836Z,26.03
2023-04-09T00:26:04.586Z,24.90
2023-04-09T00:28:31.279Z,26.20
2023-04-09T00:30:58.082Z,27.83
2023-04-09T00:33:24.782Z,25.90
2023-04-09T00:35:51.393Z,29.13
2023-04-09T00:38:18.398Z,29.67
2023-04-09T00:40:48.409Z,29.23
2023-04-09T00:43:14.844Z,28.40
2023-04-09T00:45:41.592Z,34.00
2023-04-09T00:48:08.671Z,28.30
2023-04-09T00:50:35.282Z,31.00
2023-04-09T00:53:01.847Z,27.50
2023-04-09T00:55:28.942Z,29.07
2023-04-09T00:57:55.436Z,30.67
2023-04-09T01:00:21.901Z,28.77
2023-04-09T01:02:49.159Z,34.53
2023-04-09T01:05:16.511Z,31.80
2023-04-09T01:07:49.542Z,29.20
2023-04-09T01:10:34.313Z,28.50
2023-04-09T01:13:21.188Z,33.57
2023-04-09T01:15:52.019Z,30.17
2023-04-09T01:18:22.438Z,37.00
2023-04-09T01:20:59.364Z,31.87
2023-04-09T01:23:46.802Z,31.80
2023-04-09T01:26:21.542Z,34.60
2023-04-09T01:28:56.534Z,30.80
2023-04-09T01:31:26.650Z,32.10
2023-04-09T01:33:53.313Z,29.90
2023-04-09T01:36:20.410Z,33.53
2023-04-09T01:38:48.967Z,33.30
2023-04-09T01:41:18.046Z,32.53
2023-04-09T01:43:45.760Z,36.97
2023-04-09T01:46:12.902Z,35.07
2023-04-09T01:48:39.561Z,29.70
2023-04-09T01:51:06.225Z,43.07
2023-04-09T01:53:32.654Z,30.33
2023-04-09T01:55:59.498Z,32.33
2023-04-09T01:58:26.023Z,37.20
2023-04-09T02:00:55.804Z,36.93
2023-04-09T02:03:29.321Z,35.83
2023-04-09T02:05:59.346Z,36.97
2023-04-09T02:08:28.663Z,36.30
2023-04-09T02:10:56.670Z,36.90
2023-04-09T02:13:23.908Z,37.47
2023-04-09T02:15:50.799Z,35.90
2023-04-09T02:18:24.030Z,35.00
2023-04-09T02:20:52.078Z,35.00
2023-04-09T02:23:18.808Z,38.23
2023-04-09T02:25:45.508Z,40.70
2023-04-09T02:28:11.956Z,45.23
2023-04-09T02:30:38.502Z,36.90
2023-04-09T02:33:05.522Z,41.23
2023-04-09T02:35:32.362Z,37.37
2023-04-09T02:37:59.550Z,37.93
2023-04-09T02:40:26.588Z,44.67
2023-04-09T02:42:53.354Z,36.13
2023-04-09T02:45:19.801Z,37.60
2023-04-09T02:47:46.295Z,37.23
2023-04-09T02:50:12.936Z,37.60
2023-04-09T02:52:46.841Z,36.53
2023-04-09T02:55:13.901Z,38.20
2023-04-09T02:57:40.908Z,41.73
2023-04-09T03:00:07.776Z,39.97
2023-04-09T03:02:34.454Z,44.03
2023-04-09T03:05:01.257Z,34.83
2023-04-09T03:07:27.721Z,43.70
2023-04-09T03:09:54.283Z,37.73
2023-04-09T03:12:20.684Z,44.93
2023-04-09T03:14:47.147Z,38.63
2023-04-09T03:17:13.877Z,40.70
2023-04-09T03:19:40.418Z,37.70
2023-04-09T03:22:07.023Z,42.30
2023-04-09T03:24:34.156Z,47.60
2023-04-09T03:27:03.598Z,40.10
2023-04-09T03:29:32.074Z,42.00
2023-04-09T03:32:00.146Z,41.13
2023-04-09T03:34:26.572Z,35.87
2023-04-09T03:36:56.177Z,37.33
2023-04-09T03:39:25.884Z,36.87
2023-04-09T03:41:53.018Z,37.87
2023-04-09T03:44:19.421Z,42.70
2023-04-09T03:46:59.804Z,41.00
2023-04-09T03:49:27.689Z,39.77
2023-04-09T03:51:58.066Z,39.83
2023-04-09T03:54:30.552Z,39.47
2023-04-09T03:56:57.915Z,37.43
2023-04-09T03:59:24.973Z,41.73
2023-04-09T04:01:51.806Z,44.17
2023-04-09T04:04:21.324Z,42.33
2023-04-09T04:06:56.625Z,34.63
2023-04-09T04:09:32.912Z,39.67
2023-04-09T04:12:04.748Z,43.70
2023-04-09T04:14:48.899Z,39.20
2023-04-09T04:17:24.833Z,40.70
2023-04-09T04:19:52.503Z,40.93
2023-04-09T04:22:19.715Z,38.83
2023-04-09T04:24:49.872Z,33.60
2023-04-09T04:27:19.819Z,39.10
2023-04-09T04:29:46.994Z,36.20
2023-04-09T04:32:23.413Z,38.60
2023-04-09T04:34:51.491Z,37.83
2023-04-09T04:37:22.944Z,41.10
2023-04-09T04:39:51.979Z,36.70
2023-04-09T04:42:18.724Z,32.00
2023-04-09T04:44:46.116Z,34.87
2023-04-09T04:47:26.814Z,33.07
2023-04-09T04:49:53.539Z,32.83
2023-04-09T04:52:21.450Z,46.03
2023-04-09T04:54:51.187Z,38.67
2023-04-09T04:57:22.084Z,32.43
2023-04-09T04:59:48.515Z,35.70
2023-04-09T05:02:16.818Z,39.63
2023-04-09T05:05:00.558Z,27.03
2023-04-09T05:07:34.348Z,34.17
2023-04-09T05:10:00.920Z,34.30
2023-04-09T05:12:32.910Z,33.63
2023-04-09T05:15:00.415Z,31.37
2023-04-09T05:17:27.037Z,30.87
2023-04-09T05:19:53.702Z,30.47
2023-04-09T05:22:27.099Z,33.80
2023-04-09T05:24:54.093Z,33.87
2023-04-09T05:27:22.135Z,33.27
2023-04-09T05:29:50.786Z,36.00
2023-04-09T05:32:17.447Z,33.17
2023-04-09T05:34:44.259Z,26.90
2023-04-09T05:37:10.870Z,26.30
2023-04-09T05:39:38.042Z,25.83
2023-04-09T05:42:04.532Z,25.47
2023-04-09T05:44:57.560Z,28.60
2023-04-09T05:47:24.386Z,23.47
2023-04-09T05:50:05.284Z,24.93
2023-04-09T05:52:32.404Z,24.40
2023-04-09T05:54:59.115Z,22.70
2023-04-09T05:57:38.604Z,24.87
2023-04-09T06:00:06.409Z,22.83
2023-04-09T06:02:43.001Z,18.63
2023-04-09T06:05:09.849Z,17.50
2023-04-09T06:07:36.958Z,18.83
2023-04-09T06:10:03.629Z,20.10
2023-04-09T06:12:30.250Z,14.97
2023-04-09T06:14:56.737Z,16.17
2023-04-09T06:17:23.180Z,17.83
2023-04-09T06:19:49.631Z,17.93
2023-04-09T06:22:16.335Z,15.03
2023-04-09T06:24:42.758Z,19.23
2023-04-09T06:27:09.409Z,18.73
2023-04-09T06:29:35.997Z,16.73
2023-04-09T06:32:02.924Z,14.63
2023-04-09T06:34:29.444Z,15.07
2023-04-09T06:36:56.225Z,13.57
2023-04-09T06:39:22.881Z,14.87
2023-04-09T06:41:49.646Z,18.57
2023-04-09T06:44:37.107Z,15.93
2023-04-09T06:47:03.899Z,16.00
2023-04-09T06:49:30.355Z,17.50
2023-04-09T06:51:57.016Z,15.13
2023-04-09T06:54:23.754Z,13.80
2023-04-09T06:56:50.211Z,16.03
2023-04-09T06:59:16.772Z,13.53
2023-04-09T07:01:43.383Z,13.80
2023-04-09T07:04:10.061Z,15.57
2023-04-09T07:06:36.820Z,16.00
2023-04-09T07:09:03.323Z,14.27
2023-04-09T07:11:30.156Z,14.17
2023-04-09T07:13:56.874Z,12.20
2023-04-09T07:16:23.639Z,14.43
2023-04-09T07:18:50.601Z,13.87
2023-04-09T07:21:17.424Z,15.50
2023-04-09T07:23:43.917Z,14.90
2023-04-09T07:26:10.442Z,14.43
2023-04-09T07:28:36.941Z,14.77
2023-04-09T07:31:03.741Z,13.43
2023-04-09T07:33:30.249Z,13.90
2023-04-09T07:35:57.652Z,15.90
2023-04-09T07:38:24.298Z,16.30
2023-04-09T07:40:51.055Z,14.40
2023-04-09T07:43:17.905Z,15.90
2023-04-09T07:45:44.513Z,15.23
2023-04-09T07:48:11.030Z,14.37
2023-04-09T07:50:38.041Z,15.60
2023-04-09T07:53:05.276Z,15.53
2023-04-09T07:55:31.713Z,18.67
2023-04-09T07:57:58.132Z,17.13
2023-04-09T08:00:24.716Z,15.50
2023-04-09T08:02:51.575Z,15.20
2023-04-09T08:05:18.306Z,15.97
2023-04-09T08:07:44.776Z,20.47
2023-04-09T08:10:15.064Z,14.07
2023-04-09T08:12:41.941Z,14.33
2023-04-09T08:15:08.892Z,15.10
2023-04-09T08:17:37.193Z,16.03
2023-04-09T08:20:04.418Z,14.93
2023-04-09T08:22:31.267Z,18.40
2023-04-09T08:25:00.219Z,14.73
2023-04-09T08:27:28.053Z,13.70
2023-04-09T08:29:54.601Z,16.27
2023-04-09T08:32:21.444Z,13.77
2023-04-09T08:34:47.890Z,15.73
2023-04-09T08:37:14.265Z,12.83
2023-04-09T08:39:40.699Z,14.40
2023-04-09T08:42:08.159Z,15.60
2023-04-09T08:44:34.838Z,14.27
2023-04-09T08:47:01.687Z,13.10
2023-04-09T08:49:28.199Z,16.63
2023-04-09T08:51:54.729Z,15.13
2023-04-09T08:54:21.584Z,12.70
2023-04-09T08:56:48.195Z,14.10
2023-04-09T08:59:20.799Z,14.00
2023-04-09T09:01:52.563Z,13.90
2023-04-09T09:04:19.485Z,15.97
2023-04-09T09:06:46.531Z,13.83
2023-04-09T09:09:13.735Z,15.00
2023-04-09T09:11:46.905Z,13.73
2023-04-09T09:14:14.279Z,16.07
2023-04-09T09:16:44.924Z,13.63
2023-04-09T09:19:26.925Z,12.33
2023-04-09T09:22:03.939Z,15.90
2023-04-09T09:24:32.472Z,13.23
2023-04-09T09:26:59.086Z,16.30
2023-04-09T09:29:25.912Z,16.20
2023-04-09T09:31:53.870Z,13.83
2023-04-09T09:34:21.211Z,15.07
2023-04-09T09:36:47.939Z,14.13
2023-04-09T09:39:17.211Z,14.07
2023-04-09T09:41:44.352Z,14.30
2023-04-09T09:44:11.578Z,14.20
2023-04-09T09:46:39.400Z,13.60
2023-04-09T09:49:06.739Z,13.90
2023-04-09T09:51:33.995Z,12.43
2023-04-09T09:54:01.184Z,13.83
2023-04-09T09:56:32.598Z,12.93
2023-04-09T09:59:04.281Z,14.73
2023-04-09T10:01:30.820Z,13.27
2023-04-09T10:03:59.829Z,16.03
2023-04-09T10:06:27.529Z,16.60
2023-04-09T10:08:57.651Z,15.17
2023-04-09T10:11:24.683Z,14.97
2023-04-09T10:13:53.888Z,14.30
2023-04-09T10:16:23.050Z,14.67
2023-04-09T10:18:49.833Z,12.83
2023-04-09T10:21:32.365Z,12.83
2023-04-09T10:23:59.766Z,16.47
2023-04-09T10:26:30.837Z,12.13
2023-04-09T10:29:11.488Z,15.20
2023-04-09T10:31:56.619Z,13.30
2023-04-09T10:34:24.300Z,14.77
2023-04-09T10:36:53.502Z,15.10
2023-04-09T10:39:20.866Z,13.93
2023-04-09T10:41:49.305Z,14.70
2023-04-09T10:44:27.012Z,14.43
2023-04-09T10:46:56.585Z,13.77
2023-04-09T10:49:24.280Z,12.50
2023-04-09T10:52:11.944Z,12.83
2023-04-09T10:54:43.637Z,12.57
2023-04-09T10:57:10.775Z,19.33
2023-04-09T10:59:47.628Z,13.80
2023-04-09T11:02:32.881Z,14.03
2023-04-09T11:05:07.007Z,12.57
2023-04-09T11:07:35.230Z,11.50
2023-04-09T11:10:01.656Z,14.87
2023-04-09T11:12:28.118Z,11.10
2023-04-09T11:14:54.563Z,17.43
2023-04-09T11:17:21.219Z,11.87
2023-04-09T11:19:47.949Z,12.70
2023-04-09T11:22:15.298Z,12.67
2023-04-09T11:24:46.615Z,12.10
2023-04-09T11:27:13.244Z,12.57
2023-04-09T11:29:39.680Z,12.57
2023-04-09T11:32:06.641Z,16.40
2023-04-09T11:34:33.072Z,14.73
2023-04-09T11:37:02.101Z,14.07
2023-04-09T11:39:28.580Z,13.37
2023-04-09T11:41:55.085Z,12.17
2023-04-09T11:44:22.455Z,13.27
2023-04-09T11:46:49.172Z,15.17
2023-04-09T11:49:16.342Z,12.30
2023-04-09T11:51:42.864Z,14.87
2023-04-09T11:54:11.494Z,12.03
2023-04-09T11:56:38.277Z,11.07
2023-04-09T11:59:04.878Z,12.30
2023-04-09T12:01:34.643Z,12.10
2023-04-09T12:04:01.786Z,13.97
2023-04-09T12:06:28.735Z,13.20
2023-04-09T12:08:58.701Z,17.73
2023-04-09T12:11:29.777Z,18.10
2023-04-09T12:13:59.862Z,14.77
2023-04-09T12:16:26.325Z,14.07
2023-04-09T12:18:55.727Z,11.17
2023-04-09T12:21:27.452Z,14.40
2023-04-09T12:23:53.873Z,12.73
2023-04-09T12:26:20.907Z,11.63
2023-04-09T12:28:47.508Z,13.17
2023-04-09T12:31:13.949Z,13.00
2023-04-09T12:33:41.028Z,12.20
2023-04-09T12:36:07.789Z,12.33
2023-04-09T12:38:34.897Z,17.03
2023-04-09T12:41:02.340Z,16.80
2023-04-09T12:43:28.768Z,15.23
2023-04-09T12:45:56.214Z,14.77
2023-04-09T12:48:22.693Z,14.77
2023-04-09T12:50:49.185Z,15.20
2023-04-09T12:53:16.068Z,16.27
2023-04-09T12:55:43.009Z,13.80
2023-04-09T12:58:09.473Z,14.87
2023-04-09T13:00:35.926Z,15.00
2023-04-09T13:03:02.471Z,14.17
2023-04-09T13:05:31.290Z,16.27
2023-04-09T13:07:57.938Z,15.50
2023-04-09T13:10:24.818Z,14.77
2023-04-09T13:12:51.522Z,14.67
2023-04-09T13:15:17.926Z,17.47
2023-04-09T13:17:44.366Z,16.30
2023-04-09T13:20:11.160Z,16.30
2023-04-09T13:22:37.726Z,16.27
2023-04-09T13:25:04.747Z,15.27
2023-04-09T13:27:31.375Z,17.40
2023-04-09T13:29:57.835Z,16.50
2023-04-09T13:32:24.399Z,18.10
2023-04-09T13:34:51.107Z,15.87
2023-04-09T13:37:17.535Z,18.50
2023-04-09T13:39:44.189Z,18.13
2023-04-09T13:42:13.996Z,20.30
2023-04-09T13:44:42.297Z,17.80
2023-04-09T13:47:11.080Z,18.43
2023-04-09T13:49:37.553Z,18.37
2023-04-09T13:52:05.833Z,19.80
2023-04-09T13:54:33.200Z,23.43
2023-04-09T13:56:59.678Z,23.50
2023-04-09T13:59:26.175Z,23.60
2023-04-09T14:01:52.742Z,22.43
2023-04-09T14:04:19.398Z,25.27
2023-04-09T14:06:46.203Z,22.97
2023-04-09T14:09:13.054Z,28.90
2023-04-09T14:11:39.755Z,21.53
2023-04-09T14:14:06.652Z,23.80
2023-04-09T14:16:33.494Z,22.83
2023-04-09T14:19:00.131Z,21.53
2023-04-09T14:21:26.946Z,23.80
2023-04-09T14:23:54.020Z,25.43
2023-04-09T14:26:22.215Z,25.57
2023-04-09T14:28:51.149Z,20.70
2023-04-09T14:31:21.263Z,21.57
2023-04-09T14:33:48.862Z,23.67
2023-04-09T14:36:15.799Z,21.87
2023-04-09T14:38:42.371Z,20.07
2023-04-09T14:41:09.785Z,20.73
2023-04-09T14:43:36.465Z,17.73
2023-04-09T14:46:04.025Z,19.93
2023-04-09T14:48:31.226Z,20.87
2023-04-09T14:50:58.163Z,19.27
2023-04-09T14:53:25.252Z,19.00
2023-04-09T14:55:52.297Z,21.97
2023-04-09T14:58:18.759Z,22.83
2023-04-09T15:00:45.569Z,26.07
2023-04-09T15:03:12.764Z,22.63
2023-04-09T15:05:39.355Z,25.17
2023-04-09T15:08:05.873Z,23.80
2023-04-09T15:10:32.334Z,22.00
2023-04-09T15:12:59.447Z,18.03
2023-04-09T15:15:26.635Z,19.97
2023-04-09T15:17:53.626Z,20.07
2023-04-09T15:20:20.161Z,21.70
2023-04-09T15:22:46.922Z,19.50
2023-04-09T15:25:14.442Z,20.70
2023-04-09T15:27:41.224Z,21.80
2023-04-09T15:30:08.057Z,22.37
2023-04-09T15:32:34.892Z,21.90
2023-04-09T15:35:01.396Z,23.13
2023-04-09T15:37:27.796Z,21.30
2023-04-09T15:39:54.481Z,22.00
2023-04-09T15:42:22.881Z,25.93
2023-04-09T15:44:49.942Z,26.20
2023-04-09T15:47:16.594Z,20.67
2023-04-09T15:49:43.070Z,25.63
2023-04-09T15:52:09.527Z,22.80
2023-04-09T15:54:35.953Z,29.33
2023-04-09T15:57:02.396Z,24.20
2023-04-09T15:59:28.806Z,27.57
2023-04-09T16:01:55.626Z,23.27
2023-04-09T16:04:22.248Z,25.10
2023-04-09T16:06:49.231Z,24.17
2023-04-09T16:09:15.634Z,26.47
2023-04-09T16:11:42.238Z,23.70
2023-04-09T16:14:10.918Z,26.00
2023-04-09T16:16:38.657Z,23.70
2023-04-09T16:19:05.236Z,22.03
2023-04-09T16:21:32.110Z,23.60
2023-04-09T16:24:00.405Z,22.30
2023-04-09T16:26:26.826Z,22.20
2023-04-09T16:28:53.439Z,18.90
2023-04-09T16:31:20.412Z,19.73
2023-04-09T16:33:46.900Z,22.93
2023-04-09T16:36:13.349Z,19.47
2023-04-09T16:38:39.817Z,21.03
2023-04-09T16:41:06.454Z,21.30
2023-04-09T16:43:32.964Z,19.57
2023-04-09T16:45:59.739Z,20.40
2023-04-09T16:48:26.212Z,25.53
2023-04-09T16:50:52.641Z,20.43
2023-04-09T16:53:19.102Z,22.07
2023-04-09T16:55:45.501Z,24.57
2023-04-09T16:58:11.930Z,23.50
2023-04-09T17:00:39.900Z,24.10
2023-04-09T17:03:06.747Z,24.93
2023-04-09T17:05:33.827Z,26.00
2023-04-09T17:08:00.829Z,24.30
2023-04-09T17:10:28.130Z,22.63
2023-04-09T17:12:54.720Z,24.60
2023-04-09T17:15:22.556Z,24.60
2023-04-09T17:17:51.189Z,23.33
2023-04-09T17:20:18.160Z,23.10
2023-04-09T17:22:46.542Z,25.27
2023-04-09T17:25:12.932Z,21.20
2023-04-09T17:27:39.660Z,24.60
2023-04-09T17:30:06.637Z,25.10
2023-04-09T17:32:33.253Z,21.83
2023-04-09T17:35:00.185Z,27.23
2023-04-09T17:37:27.626Z,23.57
2023-04-09T17:39:54.465Z,24.13
2023-04-09T17:42:22.087Z,23.43
2023-04-09T17:44:48.877Z,22.80
2023-04-09T17:47:15.867Z,22.87
2023-04-09T17:49:42.455Z,19.70
2023-04-09T17:52:09.710Z,22.63
2023-04-09T17:54:36.599Z,21.37
2023-04-09T17:57:04.510Z,24.30
2023-04-09T17:59:31.946Z,25.40
2023-04-09T18:01:58.576Z,26.10
2023-04-09T18:04:25.764Z,24.80
2023-04-09T18:06:52.882Z,30.00
2023-04-09T18:09:19.416Z,23.63
2023-04-09T18:11:46.307Z,20.80
2023-04-09T18:14:12.800Z,23.83
2023-04-09T18:16:39.349Z,27.63
2023-04-09T18:19:06.529Z,22.70
2023-04-09T18:21:33.183Z,29.43
2023-04-09T18:23:59.894Z,26.33
2023-04-09T18:26:26.302Z,23.67
2023-04-09T18:28:53.018Z,25.00
2023-04-09T18:31:19.750Z,22.00
2023-04-09T18:33:46.711Z,28.30
2023-04-09T18:36:13.299Z,22.20
2023-04-09T18:38:40.576Z,24.73
2023-04-09T18:41:08.147Z,19.23
2023-04-09T18:43:35.568Z,19.90
2023-04-09T18:46:02.188Z,27.67
2023-04-09T18:48:28.583Z,22.27
2023-04-09T18:50:55.369Z,24.87
2023-04-09T18:53:21.775Z,26.37
2023-04-09T18:55:48.244Z,24.10
2023-04-09T18:58:15.634Z,25.17
2023-04-09T19:00:42.211Z,24.63
2023-04-09T19:03:09.141Z,30.67
2023-04-09T19:05:36.070Z,30.23
2023-04-09T19:08:04.161Z,28.07
2023-04-09T19:10:30.604Z,29.10
2023-04-09T19:12:57.046Z,28.33
2023-04-09T19:15:26.039Z,27.83
2023-04-09T19:17:52.812Z,26.33
2023-04-09T19:20:19.627Z,28.63
2023-04-09T19:22:47.873Z,29.50
2023-04-09T19:25:15.274Z,26.67
2023-04-09T19:27:41.754Z,34.00
2023-04-09T19:30:09.224Z,26.37
2023-04-09T19:32:36.055Z,28.40
2023-04-09T19:35:02.946Z,25.97
2023-04-09T19:37:30.569Z,24.23
2023-04-09T19:39:58.115Z,24.23
2023-04-09T19:42:24.930Z,23.23
2023-04-09T19:44:51.370Z,21.63
2023-04-09T19:47:17.855Z,24.97
2023-04-09T19:49:44.662Z,23.53
2023-04-09T19:52:11.080Z,14.37
2023-04-09T19:54:37.619Z,17.30
2023-04-09T19:57:04.864Z,17.37
2023-04-09T19:59:36.061Z,20.40
2023-04-09T20:02:02.775Z,18.50
2023-04-09T20:04:30.856Z,20.43
2023-04-09T20:06:57.560Z,18.47
2023-04-09T20:09:26.317Z,18.77
2023-04-09T20:11:54.122Z,22.53
2023-04-09T20:14:20.984Z,20.23
2023-04-09T20:16:47.904Z,26.20
2023-04-09T20:19:14.482Z,20.00
2023-04-09T20:21:41.857Z,18.30
2023-04-09T20:24:08.312Z,19.97
2023-04-09T20:26:36.088Z,18.67
2023-04-09T20:29:02.602Z,21.63
2023-04-09T20:31:31.859Z,17.87
2023-04-09T20:33:58.290Z,18.67
2023-04-09T20:36:24.683Z,19.90
2023-04-09T20:38:51.276Z,18.27
2023-04-09T20:41:18.117Z,18.60
2023-04-09T20:43:44.543Z,24.43
2023-04-09T20:46:11.792Z,23.10
2023-04-09T20:48:39.042Z,18.50
2023-04-09T20:51:09.815Z,18.97
2023-04-09T20:53:36.592Z,17.43
2023-04-09T20:56:03.960Z,19.23
2023-04-09T20:58:31.446Z,20.30
2023-04-09T21:01:06.845Z,18.77
2023-04-09T21:03:34.774Z,19.73
2023-04-09T21:06:01.767Z,19.43
2023-04-09T21:08:29.123Z,21.23
2023-04-09T21:10:55.983Z,18.40
2023-04-09T21:13:23.286Z,20.33
2023-04-09T21:15:49.829Z,18.30
2023-04-09T21:18:16.651Z,17.93
2023-04-09T21:20:44.678Z,21.67
2023-04-09T21:23:11.237Z,24.37
2023-04-09T21:25:37.669Z,23.13
2023-04-09T21:28:04.375Z,21.43
2023-04-09T21:30:32.199Z,20.90
2023-04-09T21:33:01.016Z,21.07
2023-04-09T21:35:27.448Z,25.33
2023-04-09T21:37:54.268Z,22.87
2023-04-09T21:40:20.768Z,21.10
2023-04-09T21:42:47.178Z,24.13
2023-04-09T21:45:13.565Z,17.93
2023-04-09T21:47:40.559Z,18.37
2023-04-09T21:50:08.400Z,18.30
2023-04-09T21:52:35.082Z,19.97
2023-04-09T21:55:01.492Z,23.57
2023-04-09T21:57:28.387Z,18.63
2023-04-09T21:59:54.868Z,18.03
2023-04-09T22:02:21.366Z,15.97
2023-04-09T22:04:47.954Z,17.40
2023-04-09T22:07:14.454Z,17.17
2023-04-09T22:09:40.949Z,19.60
2023-04-09T22:12:07.849Z,19.53
2023-04-09T22:14:34.258Z,26.20
2023-04-09T22:17:01.736Z,22.43
2023-04-09T22:19:29.425Z,20.10
2023-04-09T22:21:55.866Z,18.03
2023-04-09T22:24:30.163Z,24.37
2023-04-09T22:26:58.822Z,24.50
2023-04-09T22:29:26.188Z,22.63
2023-04-09T22:31:52.615Z,21.53
2023-04-09T22:34:21.129Z,23.47
2023-04-09T22:36:48.064Z,25.17
2023-04-09T22:39:14.457Z,22.47
2023-04-09T22:41:41.106Z,25.03
2023-04-09T22:44:09.371Z,24.50
2023-04-09T22:46:36.471Z,24.03
2023-04-09T22:49:05.280Z,22.83
2023-04-09T22:51:34.315Z,24.40
2023-04-09T22:54:01.934Z,28.13
2023-04-09T22:56:28.721Z,27.33
2023-04-09T22:58:55.555Z,24.03
2023-04-09T23:01:23.220Z,30.73
2023-04-09T23:03:50.061Z,25.30
2023-04-09T23:06:19.544Z,26.20
2023-04-09T23:08:46.633Z,32.20
2023-04-09T23:11:13.075Z,29.80
2023-04-09T23:13:39.790Z,31.87
2023-04-09T23:16:07.016Z,31.00
2023-04-09T23:18:34.481Z,28.50
2023-04-09T23:21:05.731Z,32.63
2023-04-09T23:23:32.466Z,35.07
2023-04-09T23:25:59.024Z,28.60
2023-04-09T23:28:25.621Z,26.07
2023-04-09T23:30:52.040Z,25.03
2023-04-09T23:33:19.041Z,31.67
2023-04-09T23:35:46.624Z,28.93
2023-04-09T23:38:13.114Z,28.30
2023-04-09T23:40:39.590Z,27.90
2023-04-09T23:43:06.452Z,27.93
2023-04-09T23:45:32.885Z,31.00
2023-04-09T23:47:59.380Z,36.73
2023-04-09T23:50:28.562Z,33.83
2023-04-09T23:52:59.700Z,31.90
2023-04-09T23:55:27.158Z,30.17
2023-04-09T23:57:53.757Z,30.90
